sensor_id;sensor_type;location;lat;lon;timestamp;P1;durP1;ratioP1;P2;durP2;ratioP2
23282;SDS011;11810;51.178;3.878;2023-03-31T00:01:47;22.38;;;3.55;;
23282;SDS011;11810;51.178;3.878;2023-03-31T00:04:13;28.15;;;4.47;;
23282;SDS011;11810;51.178;3.878;2023-03-31T00:06:40;29.08;;;5.10;;
23282;SDS011;11810;51.178;3.878;2023-03-31T00:09:07;20.67;;;4.10;;
23282;SDS011;11810;51.178;3.878;2023-03-31T00:11:35;26.80;;;4.03;;
23282;SDS011;11810;51.178;3.878;2023-03-31T00:14:02;23.23;;;3.80;;
23282;SDS011;11810;51.178;3.878;2023-03-31T00:16:31;30.08;;;4.15;;
23282;SDS011;11810;51.178;3.878;2023-03-31T00:19:00;28.08;;;4.60;;
23282;SDS011;11810;51.178;3.878;2023-03-31T00:21:27;26.38;;;4.18;;
23282;SDS011;11810;51.178;3.878;2023-03-31T00:24:02;23.38;;;4.20;;
23282;SDS011;11810;51.178;3.878;2023-03-31T00:26:29;23.98;;;4.43;;
23282;SDS011;11810;51.178;3.878;2023-03-31T00:28:56;23.63;;;4.15;;
23282;SDS011;11810;51.178;3.878;2023-03-31T00:31:23;28.15;;;4.53;;
23282;SDS011;11810;51.178;3.878;2023-03-31T00:33:51;28.58;;;4.32;;
23282;SDS011;11810;51.178;3.878;2023-03-31T00:36:18;22.80;;;4.65;;
23282;SDS011;11810;51.178;3.878;2023-03-31T00:39:01;25.02;;;4.43;;
23282;SDS011;11810;51.178;3.878;2023-03-31T00:41:33;24.30;;;3.63;;
23282;SDS011;11810;51.178;3.878;2023-03-31T00:44:01;25.33;;;4.25;;
23282;SDS011;11810;51.178;3.878;2023-03-31T00:46:43;30.48;;;5.22;;
23282;SDS011;11810;51.178;3.878;2023-03-31T00:51:53;19.80;;;3.33;;
23282;SDS011;11810;51.178;3.878;2023-03-31T00:54:22;23.90;;;3.90;;
23282;SDS011;11810;51.178;3.878;2023-03-31T00:56:50;21.15;;;4.05;;
23282;SDS011;11810;51.178;3.878;2023-03-31T00:59:19;24.65;;;4.10;;
23282;SDS011;11810;51.178;3.878;2023-03-31T01:01:51;16.90;;;3.08;;
23282;SDS011;11810;51.178;3.878;2023-03-31T01:04:18;20.70;;;3.65;;
23282;SDS011;11810;51.178;3.878;2023-03-31T01:06:57;18.50;;;3.78;;
23282;SDS011;11810;51.178;3.878;2023-03-31T01:09:29;18.42;;;3.58;;
23282;SDS011;11810;51.178;3.878;2023-03-31T01:11:59;25.83;;;3.78;;
23282;SDS011;11810;51.178;3.878;2023-03-31T01:14:27;20.20;;;3.38;;
23282;SDS011;11810;51.178;3.878;2023-03-31T01:16:55;25.45;;;3.85;;
23282;SDS011;11810;51.178;3.878;2023-03-31T01:19:25;19.05;;;3.65;;
23282;SDS011;11810;51.178;3.878;2023-03-31T01:28:04;19.85;;;3.15;;
23282;SDS011;11810;51.178;3.878;2023-03-31T01:30:47;15.13;;;2.92;;
23282;SDS011;11810;51.178;3.878;2023-03-31T01:52:02;22.60;;;4.15;;
23282;SDS011;11810;51.178;3.878;2023-03-31T01:54:20;19.65;;;2.75;;
23282;SDS011;11810;51.178;3.878;2023-03-31T01:56:59;19.58;;;3.55;;
23282;SDS011;11810;51.178;3.878;2023-03-31T02:00:13;18.40;;;3.40;;
23282;SDS011;11810;51.178;3.878;2023-03-31T02:02:26;24.60;;;2.83;;
23282;SDS011;11810;51.178;3.878;2023-03-31T02:05:08;21.95;;;3.60;;
23282;SDS011;11810;51.178;3.878;2023-03-31T02:07:42;20.10;;;3.33;;
23282;SDS011;11810;51.178;3.878;2023-03-31T02:10:15;27.58;;;4.38;;
23282;SDS011;11810;51.178;3.878;2023-03-31T02:12:43;17.00;;;4.28;;
23282;SDS011;11810;51.178;3.878;2023-03-31T02:15:12;20.17;;;3.92;;
23282;SDS011;11810;51.178;3.878;2023-03-31T02:17:42;15.75;;;4.05;;
23282;SDS011;11810;51.178;3.878;2023-03-31T02:20:13;18.10;;;3.88;;
23282;SDS011;11810;51.178;3.878;2023-03-31T02:22:43;20.67;;;4.22;;
23282;SDS011;11810;51.178;3.878;2023-03-31T02:25:13;22.67;;;3.60;;
23282;SDS011;11810;51.178;3.878;2023-03-31T02:27:43;17.67;;;2.95;;
23282;SDS011;11810;51.178;3.878;2023-03-31T02:30:13;14.73;;;3.13;;
23282;SDS011;11810;51.178;3.878;2023-03-31T02:32:40;18.13;;;3.33;;
23282;SDS011;11810;51.178;3.878;2023-03-31T02:35:16;18.70;;;3.10;;
23282;SDS011;11810;51.178;3.878;2023-03-31T02:37:44;18.88;;;3.45;;
23282;SDS011;11810;51.178;3.878;2023-03-31T02:41:57;18.02;;;3.28;;
23282;SDS011;11810;51.178;3.878;2023-03-31T02:44:26;16.50;;;3.15;;
23282;SDS011;11810;51.178;3.878;2023-03-31T02:46:52;14.95;;;2.90;;
23282;SDS011;11810;51.178;3.878;2023-03-31T02:49:18;22.00;;;3.60;;
23282;SDS011;11810;51.178;3.878;2023-03-31T02:51:48;15.88;;;3.17;;
23282;SDS011;11810;51.178;3.878;2023-03-31T02:59:50;19.52;;;3.53;;
23282;SDS011;11810;51.178;3.878;2023-03-31T03:02:36;16.58;;;2.70;;
23282;SDS011;11810;51.178;3.878;2023-03-31T03:05:31;18.00;;;2.92;;
23282;SDS011;11810;51.178;3.878;2023-03-31T03:16:19;14.85;;;1.80;;
23282;SDS011;11810;51.178;3.878;2023-03-31T03:18:56;10.52;;;1.85;;
23282;SDS011;11810;51.178;3.878;2023-03-31T03:21:27;9.23;;;1.50;;
23282;SDS011;11810;51.178;3.878;2023-03-31T03:23:53;8.65;;;1.50;;
23282;SDS011;11810;51.178;3.878;2023-03-31T03:26:20;12.65;;;2.45;;
23282;SDS011;11810;51.178;3.878;2023-03-31T03:28:50;8.43;;;1.80;;
23282;SDS011;11810;51.178;3.878;2023-03-31T03:31:17;6.45;;;1.00;;
23282;SDS011;11810;51.178;3.878;2023-03-31T03:33:43;5.60;;;1.20;;
23282;SDS011;11810;51.178;3.878;2023-03-31T03:36:10;7.60;;;2.33;;
23282;SDS011;11810;51.178;3.878;2023-03-31T03:38:37;5.70;;;1.80;;
23282;SDS011;11810;51.178;3.878;2023-03-31T03:41:02;4.38;;;1.10;;
23282;SDS011;11810;51.178;3.878;2023-03-31T03:43:28;5.25;;;1.00;;
23282;SDS011;11810;51.178;3.878;2023-03-31T03:45:54;3.60;;;1.08;;
23282;SDS011;11810;51.178;3.878;2023-03-31T03:48:20;2.17;;;1.23;;
23282;SDS011;11810;51.178;3.878;2023-03-31T03:50:46;6.63;;;1.08;;
23282;SDS011;11810;51.178;3.878;2023-03-31T03:53:13;5.18;;;0.88;;
23282;SDS011;11810;51.178;3.878;2023-03-31T03:55:39;3.67;;;0.70;;
23282;SDS011;11810;51.178;3.878;2023-03-31T03:58:05;3.72;;;0.80;;
23282;SDS011;11810;51.178;3.878;2023-03-31T04:00:31;0.63;;;0.50;;
23282;SDS011;11810;51.178;3.878;2023-03-31T04:02:57;1.55;;;0.68;;
23282;SDS011;11810;51.178;3.878;2023-03-31T04:05:23;4.43;;;0.63;;
23282;SDS011;11810;51.178;3.878;2023-03-31T04:07:49;1.88;;;0.80;;
23282;SDS011;11810;51.178;3.878;2023-03-31T04:10:15;3.13;;;0.73;;
23282;SDS011;11810;51.178;3.878;2023-03-31T04:12:41;3.13;;;0.90;;
23282;SDS011;11810;51.178;3.878;2023-03-31T04:15:07;1.85;;;0.70;;
23282;SDS011;11810;51.178;3.878;2023-03-31T04:17:33;2.22;;;0.60;;
23282;SDS011;11810;51.178;3.878;2023-03-31T04:20:01;2.30;;;0.70;;
23282;SDS011;11810;51.178;3.878;2023-03-31T04:22:32;6.85;;;1.17;;
23282;SDS011;11810;51.178;3.878;2023-03-31T04:25:02;6.40;;;1.02;;
23282;SDS011;11810;51.178;3.878;2023-03-31T04:27:29;3.38;;;0.80;;
23282;SDS011;11810;51.178;3.878;2023-03-31T04:29:57;5.82;;;1.00;;
23282;SDS011;11810;51.178;3.878;2023-03-31T04:32:23;3.97;;;0.80;;
23282;SDS011;11810;51.178;3.878;2023-03-31T04:34:49;4.13;;;1.17;;
23282;SDS011;11810;51.178;3.878;2023-03-31T04:37:16;3.33;;;0.70;;
23282;SDS011;11810;51.178;3.878;2023-03-31T04:39:42;2.22;;;0.93;;
23282;SDS011;11810;51.178;3.878;2023-03-31T04:42:10;2.78;;;0.82;;
23282;SDS011;11810;51.178;3.878;2023-03-31T04:44:36;7.30;;;1.00;;
23282;SDS011;11810;51.178;3.878;2023-03-31T04:47:02;2.92;;;0.70;;
23282;SDS011;11810;51.178;3.878;2023-03-31T04:49:30;2.58;;;0.80;;
23282;SDS011;11810;51.178;3.878;2023-03-31T04:51:57;2.65;;;0.70;;
23282;SDS011;11810;51.178;3.878;2023-03-31T04:54:23;5.43;;;1.35;;
23282;SDS011;11810;51.178;3.878;2023-03-31T04:56:49;4.43;;;1.15;;
23282;SDS011;11810;51.178;3.878;2023-03-31T04:59:15;6.30;;;1.25;;
23282;SDS011;11810;51.178;3.878;2023-03-31T05:01:41;5.00;;;1.50;;
23282;SDS011;11810;51.178;3.878;2023-03-31T05:04:09;3.40;;;1.17;;
23282;SDS011;11810;51.178;3.878;2023-03-31T05:06:35;9.45;;;1.48;;
23282;SDS011;11810;51.178;3.878;2023-03-31T05:09:00;8.13;;;1.50;;
23282;SDS011;11810;51.178;3.878;2023-03-31T05:11:26;7.80;;;1.67;;
23282;SDS011;11810;51.178;3.878;2023-03-31T05:13:53;4.97;;;1.48;;
23282;SDS011;11810;51.178;3.878;2023-03-31T05:16:19;11.35;;;1.95;;
23282;SDS011;11810;51.178;3.878;2023-03-31T05:18:45;13.25;;;2.90;;
23282;SDS011;11810;51.178;3.878;2023-03-31T05:21:18;8.93;;;1.65;;
23282;SDS011;11810;51.178;3.878;2023-03-31T05:23:45;10.43;;;1.80;;
23282;SDS011;11810;51.178;3.878;2023-03-31T05:26:11;11.02;;;2.55;;
23282;SDS011;11810;51.178;3.878;2023-03-31T05:28:38;10.77;;;2.17;;
23282;SDS011;11810;51.178;3.878;2023-03-31T05:31:05;14.93;;;2.22;;
23282;SDS011;11810;51.178;3.878;2023-03-31T05:33:32;10.90;;;2.47;;
23282;SDS011;11810;51.178;3.878;2023-03-31T05:35:58;15.63;;;2.45;;
23282;SDS011;11810;51.178;3.878;2023-03-31T05:38:24;12.50;;;2.13;;
23282;SDS011;11810;51.178;3.878;2023-03-31T05:40:53;19.45;;;3.10;;
23282;SDS011;11810;51.178;3.878;2023-03-31T05:43:20;14.57;;;2.65;;
23282;SDS011;11810;51.178;3.878;2023-03-31T05:45:46;18.27;;;2.78;;
23282;SDS011;11810;51.178;3.878;2023-03-31T05:48:12;22.60;;;2.80;;
23282;SDS011;11810;51.178;3.878;2023-03-31T05:50:37;16.30;;;2.85;;
23282;SDS011;11810;51.178;3.878;2023-03-31T05:53:03;21.55;;;3.53;;
23282;SDS011;11810;51.178;3.878;2023-03-31T05:55:29;14.68;;;3.15;;
23282;SDS011;11810;51.178;3.878;2023-03-31T05:57:55;23.30;;;4.10;;
23282;SDS011;11810;51.178;3.878;2023-03-31T06:00:21;25.65;;;3.95;;
23282;SDS011;11810;51.178;3.878;2023-03-31T06:02:47;24.85;;;4.70;;
23282;SDS011;11810;51.178;3.878;2023-03-31T06:05:13;23.27;;;4.88;;
23282;SDS011;11810;51.178;3.878;2023-03-31T06:07:39;30.10;;;4.20;;
23282;SDS011;11810;51.178;3.878;2023-03-31T06:10:05;24.80;;;4.93;;
23282;SDS011;11810;51.178;3.878;2023-03-31T06:12:33;22.63;;;3.75;;
23282;SDS011;11810;51.178;3.878;2023-03-31T06:14:58;24.95;;;3.83;;
23282;SDS011;11810;51.178;3.878;2023-03-31T06:17:24;19.60;;;4.47;;
23282;SDS011;11810;51.178;3.878;2023-03-31T06:19:50;27.98;;;4.35;;
23282;SDS011;11810;51.178;3.878;2023-03-31T06:22:16;24.60;;;3.97;;
23282;SDS011;11810;51.178;3.878;2023-03-31T06:24:42;18.67;;;4.45;;
23282;SDS011;11810;51.178;3.878;2023-03-31T06:27:08;28.63;;;4.45;;
23282;SDS011;11810;51.178;3.878;2023-03-31T06:29:34;27.42;;;5.55;;
23282;SDS011;11810;51.178;3.878;2023-03-31T06:32:00;32.95;;;5.32;;
23282;SDS011;11810;51.178;3.878;2023-03-31T06:34:26;25.63;;;4.93;;
23282;SDS011;11810;51.178;3.878;2023-03-31T06:36:52;39.95;;;5.68;;
23282;SDS011;11810;51.178;3.878;2023-03-31T06:39:18;23.95;;;4.88;;
23282;SDS011;11810;51.178;3.878;2023-03-31T06:41:44;27.05;;;4.60;;
23282;SDS011;11810;51.178;3.878;2023-03-31T06:44:10;32.90;;;5.35;;
23282;SDS011;11810;51.178;3.878;2023-03-31T06:46:36;29.75;;;6.10;;
23282;SDS011;11810;51.178;3.878;2023-03-31T06:49:02;29.45;;;4.60;;
23282;SDS011;11810;51.178;3.878;2023-03-31T06:51:28;33.28;;;5.90;;
23282;SDS011;11810;51.178;3.878;2023-03-31T06:53:54;25.67;;;4.75;;
23282;SDS011;11810;51.178;3.878;2023-03-31T06:56:20;19.85;;;4.75;;
23282;SDS011;11810;51.178;3.878;2023-03-31T06:58:46;33.97;;;5.28;;
23282;SDS011;11810;51.178;3.878;2023-03-31T07:01:11;27.30;;;5.35;;
23282;SDS011;11810;51.178;3.878;2023-03-31T07:03:37;30.20;;;5.18;;
23282;SDS011;11810;51.178;3.878;2023-03-31T07:06:03;26.30;;;4.47;;
23282;SDS011;11810;51.178;3.878;2023-03-31T07:08:30;37.13;;;6.03;;
23282;SDS011;11810;51.178;3.878;2023-03-31T07:10:56;28.83;;;5.00;;
23282;SDS011;11810;51.178;3.878;2023-03-31T07:13:24;29.77;;;5.35;;
23282;SDS011;11810;51.178;3.878;2023-03-31T07:15:51;33.22;;;5.40;;
23282;SDS011;11810;51.178;3.878;2023-03-31T07:18:17;28.63;;;5.32;;
23282;SDS011;11810;51.178;3.878;2023-03-31T07:20:46;34.13;;;5.13;;
23282;SDS011;11810;51.178;3.878;2023-03-31T07:23:14;29.98;;;5.20;;
23282;SDS011;11810;51.178;3.878;2023-03-31T07:25:40;32.63;;;5.70;;
23282;SDS011;11810;51.178;3.878;2023-03-31T07:28:06;24.98;;;4.60;;
23282;SDS011;11810;51.178;3.878;2023-03-31T07:30:32;27.80;;;5.05;;
23282;SDS011;11810;51.178;3.878;2023-03-31T07:32:59;26.92;;;4.82;;
23282;SDS011;11810;51.178;3.878;2023-03-31T07:35:25;25.90;;;4.45;;
23282;SDS011;11810;51.178;3.878;2023-03-31T07:37:51;37.47;;;5.20;;
23282;SDS011;11810;51.178;3.878;2023-03-31T07:40:19;34.70;;;4.22;;
23282;SDS011;11810;51.178;3.878;2023-03-31T07:42:47;32.67;;;4.70;;
23282;SDS011;11810;51.178;3.878;2023-03-31T07:45:14;21.67;;;4.57;;
23282;SDS011;11810;51.178;3.878;2023-03-31T07:47:41;35.55;;;5.40;;
23282;SDS011;11810;51.178;3.878;2023-03-31T07:50:08;31.75;;;4.78;;
23282;SDS011;11810;51.178;3.878;2023-03-31T07:52:35;35.28;;;5.10;;
23282;SDS011;11810;51.178;3.878;2023-03-31T07:55:01;41.85;;;6.03;;
23282;SDS011;11810;51.178;3.878;2023-03-31T07:57:28;31.75;;;5.43;;
23282;SDS011;11810;51.178;3.878;2023-03-31T07:59:54;35.00;;;5.20;;
23282;SDS011;11810;51.178;3.878;2023-03-31T08:02:19;32.45;;;5.53;;
23282;SDS011;11810;51.178;3.878;2023-03-31T08:04:46;27.98;;;5.68;;
23282;SDS011;11810;51.178;3.878;2023-03-31T08:07:13;27.23;;;5.00;;
23282;SDS011;11810;51.178;3.878;2023-03-31T08:09:42;31.98;;;4.60;;
23282;SDS011;11810;51.178;3.878;2023-03-31T08:12:10;29.38;;;4.78;;
23282;SDS011;11810;51.178;3.878;2023-03-31T08:14:36;31.48;;;5.15;;
23282;SDS011;11810;51.178;3.878;2023-03-31T08:17:02;29.35;;;4.88;;
23282;SDS011;11810;51.178;3.878;2023-03-31T08:19:28;29.25;;;4.90;;
23282;SDS011;11810;51.178;3.878;2023-03-31T08:21:55;32.45;;;5.20;;
23282;SDS011;11810;51.178;3.878;2023-03-31T08:24:21;26.50;;;5.60;;
23282;SDS011;11810;51.178;3.878;2023-03-31T08:26:47;35.53;;;5.53;;
23282;SDS011;11810;51.178;3.878;2023-03-31T08:29:13;34.00;;;5.20;;
23282;SDS011;11810;51.178;3.878;2023-03-31T08:31:39;24.83;;;4.47;;
23282;SDS011;11810;51.178;3.878;2023-03-31T08:34:05;24.15;;;5.00;;
23282;SDS011;11810;51.178;3.878;2023-03-31T08:36:31;28.38;;;4.38;;
23282;SDS011;11810;51.178;3.878;2023-03-31T08:38:57;23.27;;;5.00;;
23282;SDS011;11810;51.178;3.878;2023-03-31T08:43:53;22.83;;;4.20;;
23282;SDS011;11810;51.178;3.878;2023-03-31T08:46:21;26.98;;;4.40;;
23282;SDS011;11810;51.178;3.878;2023-03-31T08:48:56;24.13;;;3.90;;
23282;SDS011;11810;51.178;3.878;2023-03-31T08:51:37;22.58;;;4.55;;
23282;SDS011;11810;51.178;3.878;2023-03-31T08:56:50;21.85;;;4.30;;
23282;SDS011;11810;51.178;3.878;2023-03-31T08:59:30;16.77;;;3.92;;
23282;SDS011;11810;51.178;3.878;2023-03-31T09:02:20;22.95;;;4.40;;
23282;SDS011;11810;51.178;3.878;2023-03-31T09:05:04;21.40;;;4.05;;
23282;SDS011;11810;51.178;3.878;2023-03-31T09:07:57;24.02;;;4.00;;
23282;SDS011;11810;51.178;3.878;2023-03-31T09:10:55;19.35;;;3.75;;
23282;SDS011;11810;51.178;3.878;2023-03-31T09:18:57;23.98;;;4.63;;
23282;SDS011;11810;51.178;3.878;2023-03-31T09:21:34;19.33;;;4.07;;
23282;SDS011;11810;51.178;3.878;2023-03-31T09:29:16;21.92;;;4.00;;
23282;SDS011;11810;51.178;3.878;2023-03-31T09:31:51;19.55;;;3.40;;
23282;SDS011;11810;51.178;3.878;2023-03-31T09:34:28;23.35;;;4.65;;
23282;SDS011;11810;51.178;3.878;2023-03-31T09:36:56;17.58;;;2.75;;
23282;SDS011;11810;51.178;3.878;2023-03-31T09:39:22;21.90;;;4.43;;
23282;SDS011;11810;51.178;3.878;2023-03-31T09:41:48;22.70;;;4.03;;
23282;SDS011;11810;51.178;3.878;2023-03-31T09:47:03;24.83;;;4.10;;
23282;SDS011;11810;51.178;3.878;2023-03-31T09:49:34;26.85;;;4.13;;
23282;SDS011;11810;51.178;3.878;2023-03-31T09:52:05;21.90;;;4.13;;
23282;SDS011;11810;51.178;3.878;2023-03-31T09:54:45;20.42;;;4.35;;
23282;SDS011;11810;51.178;3.878;2023-03-31T09:57:25;20.63;;;4.10;;
23282;SDS011;11810;51.178;3.878;2023-03-31T10:00:04;22.02;;;4.45;;
23282;SDS011;11810;51.178;3.878;2023-03-31T10:02:42;22.20;;;4.53;;
23282;SDS011;11810;51.178;3.878;2023-03-31T10:10:43;23.13;;;4.55;;
23282;SDS011;11810;51.178;3.878;2023-03-31T10:13:41;21.90;;;4.35;;
23282;SDS011;11810;51.178;3.878;2023-03-31T10:16:04;21.52;;;4.05;;
23282;SDS011;11810;51.178;3.878;2023-03-31T10:18:41;23.52;;;5.03;;
23282;SDS011;11810;51.178;3.878;2023-03-31T10:21:19;26.13;;;4.97;;
23282;SDS011;11810;51.178;3.878;2023-03-31T10:23:48;20.30;;;5.35;;
23282;SDS011;11810;51.178;3.878;2023-03-31T10:26:19;25.90;;;3.85;;
23282;SDS011;11810;51.178;3.878;2023-03-31T10:28:47;23.45;;;4.20;;
23282;SDS011;11810;51.178;3.878;2023-03-31T10:31:17;32.08;;;4.40;;
23282;SDS011;11810;51.178;3.878;2023-03-31T10:33:47;29.35;;;5.32;;
23282;SDS011;11810;51.178;3.878;2023-03-31T10:36:20;26.92;;;5.18;;
23282;SDS011;11810;51.178;3.878;2023-03-31T10:38:54;34.60;;;4.30;;
23282;SDS011;11810;51.178;3.878;2023-03-31T10:41:21;23.45;;;4.50;;
23282;SDS011;11810;51.178;3.878;2023-03-31T10:43:56;31.38;;;4.68;;
23282;SDS011;11810;51.178;3.878;2023-03-31T10:49:40;26.67;;;4.25;;
23282;SDS011;11810;51.178;3.878;2023-03-31T10:52:15;29.77;;;4.40;;
23282;SDS011;11810;51.178;3.878;2023-03-31T10:54:47;27.67;;;4.22;;
23282;SDS011;11810;51.178;3.878;2023-03-31T10:57:14;28.52;;;3.85;;
23282;SDS011;11810;51.178;3.878;2023-03-31T11:05:14;26.20;;;4.60;;
23282;SDS011;11810;51.178;3.878;2023-03-31T11:16:01;26.08;;;3.80;;
23282;SDS011;11810;51.178;3.878;2023-03-31T11:27:18;17.65;;;3.42;;
23282;SDS011;11810;51.178;3.878;2023-03-31T11:29:49;17.40;;;3.17;;
23282;SDS011;11810;51.178;3.878;2023-03-31T11:43:47;19.20;;;3.58;;
23282;SDS011;11810;51.178;3.878;2023-03-31T11:46:25;16.42;;;3.65;;
23282;SDS011;11810;51.178;3.878;2023-03-31T11:49:01;16.30;;;2.53;;
23282;SDS011;11810;51.178;3.878;2023-03-31T11:51:40;14.32;;;2.63;;
23282;SDS011;11810;51.178;3.878;2023-03-31T11:56:52;21.42;;;3.00;;
23282;SDS011;11810;51.178;3.878;2023-03-31T11:59:20;16.15;;;2.55;;
23282;SDS011;11810;51.178;3.878;2023-03-31T12:04:41;21.77;;;3.22;;
23282;SDS011;11810;51.178;3.878;2023-03-31T12:07:23;9.15;;;2.22;;
23282;SDS011;11810;51.178;3.878;2023-03-31T12:13:00;10.57;;;2.22;;
23282;SDS011;11810;51.178;3.878;2023-03-31T12:16:32;9.50;;;2.05;;
23282;SDS011;11810;51.178;3.878;2023-03-31T12:19:06;8.43;;;1.98;;
23282;SDS011;11810;51.178;3.878;2023-03-31T12:21:39;9.15;;;2.65;;
23282;SDS011;11810;51.178;3.878;2023-03-31T12:24:11;9.85;;;1.67;;
23282;SDS011;11810;51.178;3.878;2023-03-31T12:32:27;11.20;;;1.50;;
23282;SDS011;11810;51.178;3.878;2023-03-31T12:57:27;5.93;;;1.30;;
23282;SDS011;11810;51.178;3.878;2023-03-31T13:00:17;4.70;;;1.20;;
23282;SDS011;11810;51.178;3.878;2023-03-31T13:02:49;3.00;;;0.90;;
23282;SDS011;11810;51.178;3.878;2023-03-31T13:08:03;3.72;;;0.90;;
23282;SDS011;11810;51.178;3.878;2023-03-31T13:10:31;7.50;;;1.63;;
23282;SDS011;11810;51.178;3.878;2023-03-31T13:13:18;6.20;;;1.17;;
23282;SDS011;11810;51.178;3.878;2023-03-31T13:15:50;5.05;;;1.20;;
23282;SDS011;11810;51.178;3.878;2023-03-31T13:18:18;6.07;;;1.60;;
23282;SDS011;11810;51.178;3.878;2023-03-31T13:20:46;4.80;;;1.40;;
23282;SDS011;11810;51.178;3.878;2023-03-31T13:23:35;7.10;;;1.65;;
23282;SDS011;11810;51.178;3.878;2023-03-31T13:26:54;8.40;;;1.77;;
23282;SDS011;11810;51.178;3.878;2023-03-31T13:29:08;6.95;;;1.60;;
23282;SDS011;11810;51.178;3.878;2023-03-31T13:47:49;7.15;;;1.20;;
23282;SDS011;11810;51.178;3.878;2023-03-31T13:50:36;2.97;;;1.00;;
23282;SDS011;11810;51.178;3.878;2023-03-31T14:01:59;7.10;;;1.80;;
23282;SDS011;11810;51.178;3.878;2023-03-31T14:07:35;7.72;;;1.77;;
23282;SDS011;11810;51.178;3.878;2023-03-31T14:10:14;5.32;;;1.25;;
23282;SDS011;11810;51.178;3.878;2023-03-31T14:12:47;3.15;;;1.10;;
23282;SDS011;11810;51.178;3.878;2023-03-31T14:15:17;7.90;;;1.50;;
23282;SDS011;11810;51.178;3.878;2023-03-31T14:17:45;7.25;;;1.33;;
23282;SDS011;11810;51.178;3.878;2023-03-31T14:20:28;7.03;;;1.40;;
23282;SDS011;11810;51.178;3.878;2023-03-31T14:28:36;9.20;;;1.25;;
23282;SDS011;11810;51.178;3.878;2023-03-31T14:37:32;9.05;;;1.30;;
23282;SDS011;11810;51.178;3.878;2023-03-31T14:39:59;9.65;;;1.63;;
23282;SDS011;11810;51.178;3.878;2023-03-31T14:45:05;8.02;;;1.33;;
23282;SDS011;11810;51.178;3.878;2023-03-31T14:47:39;11.65;;;2.55;;
23282;SDS011;11810;51.178;3.878;2023-03-31T14:50:14;5.53;;;1.35;;
23282;SDS011;11810;51.178;3.878;2023-03-31T14:52:46;9.57;;;2.08;;
23282;SDS011;11810;51.178;3.878;2023-03-31T14:55:14;10.50;;;2.17;;
23282;SDS011;11810;51.178;3.878;2023-03-31T14:57:41;6.40;;;1.60;;
23282;SDS011;11810;51.178;3.878;2023-03-31T15:00:11;7.40;;;1.67;;
23282;SDS011;11810;51.178;3.878;2023-03-31T15:02:42;7.70;;;1.50;;
23282;SDS011;11810;51.178;3.878;2023-03-31T15:05:17;10.23;;;1.60;;
23282;SDS011;11810;51.178;3.878;2023-03-31T15:07:45;9.55;;;1.73;;
23282;SDS011;11810;51.178;3.878;2023-03-31T15:10:15;10.18;;;1.70;;
23282;SDS011;11810;51.178;3.878;2023-03-31T15:12:45;9.75;;;2.05;;
23282;SDS011;11810;51.178;3.878;2023-03-31T15:15:12;12.02;;;2.05;;
23282;SDS011;11810;51.178;3.878;2023-03-31T15:17:40;9.25;;;1.95;;
23282;SDS011;11810;51.178;3.878;2023-03-31T15:20:49;6.85;;;1.65;;
23282;SDS011;11810;51.178;3.878;2023-03-31T15:23:01;8.27;;;1.88;;
23282;SDS011;11810;51.178;3.878;2023-03-31T15:25:42;6.18;;;2.08;;
23282;SDS011;11810;51.178;3.878;2023-03-31T15:28:09;10.38;;;2.05;;
23282;SDS011;11810;51.178;3.878;2023-03-31T15:30:40;16.38;;;2.35;;
23282;SDS011;11810;51.178;3.878;2023-03-31T15:33:07;13.18;;;2.78;;
23282;SDS011;11810;51.178;3.878;2023-03-31T15:35:41;12.23;;;2.65;;
23282;SDS011;11810;51.178;3.878;2023-03-31T15:38:08;11.93;;;2.80;;
23282;SDS011;11810;51.178;3.878;2023-03-31T15:40:40;16.05;;;2.85;;
23282;SDS011;11810;51.178;3.878;2023-03-31T15:43:15;12.73;;;2.72;;
23282;SDS011;11810;51.178;3.878;2023-03-31T15:45:49;14.00;;;2.67;;
23282;SDS011;11810;51.178;3.878;2023-03-31T15:48:17;24.48;;;3.42;;
23282;SDS011;11810;51.178;3.878;2023-03-31T15:50:46;15.30;;;2.78;;
23282;SDS011;11810;51.178;3.878;2023-03-31T15:53:24;18.83;;;3.80;;
23282;SDS011;11810;51.178;3.878;2023-03-31T15:55:56;20.38;;;3.50;;
23282;SDS011;11810;51.178;3.878;2023-03-31T16:01:19;23.10;;;3.55;;
23282;SDS011;11810;51.178;3.878;2023-03-31T16:03:46;16.60;;;3.58;;
23282;SDS011;11810;51.178;3.878;2023-03-31T16:06:23;20.33;;;3.63;;
23282;SDS011;11810;51.178;3.878;2023-03-31T16:09:01;15.23;;;3.72;;
23282;SDS011;11810;51.178;3.878;2023-03-31T16:11:39;20.90;;;4.80;;
23282;SDS011;11810;51.178;3.878;2023-03-31T16:16:44;18.35;;;4.35;;
23282;SDS011;11810;51.178;3.878;2023-03-31T16:19:16;24.10;;;5.72;;
23282;SDS011;11810;51.178;3.878;2023-03-31T16:21:45;25.02;;;4.35;;
23282;SDS011;11810;51.178;3.878;2023-03-31T16:24:17;25.90;;;4.55;;
23282;SDS011;11810;51.178;3.878;2023-03-31T16:26:45;27.20;;;4.80;;
23282;SDS011;11810;51.178;3.878;2023-03-31T16:29:19;34.25;;;6.55;;
23282;SDS011;11810;51.178;3.878;2023-03-31T16:31:46;21.23;;;4.55;;
23282;SDS011;11810;51.178;3.878;2023-03-31T16:34:12;20.17;;;4.00;;
23282;SDS011;11810;51.178;3.878;2023-03-31T16:36:38;29.77;;;5.07;;
23282;SDS011;11810;51.178;3.878;2023-03-31T16:39:04;31.92;;;4.72;;
23282;SDS011;11810;51.178;3.878;2023-03-31T16:41:31;25.42;;;5.68;;
23282;SDS011;11810;51.178;3.878;2023-03-31T16:43:59;28.38;;;4.97;;
23282;SDS011;11810;51.178;3.878;2023-03-31T16:46:25;29.70;;;4.95;;
23282;SDS011;11810;51.178;3.878;2023-03-31T16:48:51;24.88;;;4.53;;
23282;SDS011;11810;51.178;3.878;2023-03-31T16:51:17;31.50;;;5.82;;
23282;SDS011;11810;51.178;3.878;2023-03-31T16:53:44;33.42;;;5.38;;
23282;SDS011;11810;51.178;3.878;2023-03-31T16:56:11;29.63;;;4.72;;
23282;SDS011;11810;51.178;3.878;2023-03-31T16:58:38;31.45;;;4.85;;
23282;SDS011;11810;51.178;3.878;2023-03-31T17:01:05;35.90;;;4.28;;
23282;SDS011;11810;51.178;3.878;2023-03-31T17:03:32;30.23;;;5.70;;
23282;SDS011;11810;51.178;3.878;2023-03-31T17:06:03;31.05;;;5.55;;
23282;SDS011;11810;51.178;3.878;2023-03-31T17:08:33;27.02;;;5.85;;
23282;SDS011;11810;51.178;3.878;2023-03-31T17:13:27;26.83;;;4.88;;
23282;SDS011;11810;51.178;3.878;2023-03-31T17:15:54;37.85;;;6.53;;
23282;SDS011;11810;51.178;3.878;2023-03-31T17:18:20;35.78;;;6.57;;
23282;SDS011;11810;51.178;3.878;2023-03-31T17:20:46;28.45;;;5.70;;
23282;SDS011;11810;51.178;3.878;2023-03-31T17:23:12;29.23;;;5.72;;
23282;SDS011;11810;51.178;3.878;2023-03-31T17:25:45;20.27;;;4.43;;
23282;SDS011;11810;51.178;3.878;2023-03-31T17:28:12;1.85;;;1.75;;
23282;SDS011;11810;51.178;3.878;2023-03-31T17:30:38;3.40;;;1.05;;
23282;SDS011;11810;51.178;3.878;2023-03-31T17:33:04;0.28;;;0.28;;
23282;SDS011;11810;51.178;3.878;2023-03-31T17:35:30;0.30;;;0.30;;
23282;SDS011;11810;51.178;3.878;2023-03-31T17:37:56;0.40;;;0.40;;
23282;SDS011;11810;51.178;3.878;2023-03-31T17:40:22;0.80;;;0.80;;
23282;SDS011;11810;51.178;3.878;2023-03-31T17:42:50;0.57;;;0.57;;
23282;SDS011;11810;51.178;3.878;2023-03-31T17:45:16;0.20;;;0.20;;
23282;SDS011;11810;51.178;3.878;2023-03-31T17:47:42;0.43;;;0.43;;
23282;SDS011;11810;51.178;3.878;2023-03-31T17:50:09;2.85;;;2.05;;
23282;SDS011;11810;51.178;3.878;2023-03-31T17:52:36;0.35;;;0.35;;
23282;SDS011;11810;51.178;3.878;2023-03-31T17:55:03;0.30;;;0.30;;
23282;SDS011;11810;51.178;3.878;2023-03-31T17:57:30;0.30;;;0.30;;
23282;SDS011;11810;51.178;3.878;2023-03-31T17:59:56;0.30;;;0.30;;
23282;SDS011;11810;51.178;3.878;2023-03-31T18:02:22;0.30;;;0.30;;
23282;SDS011;11810;51.178;3.878;2023-03-31T18:04:48;1.02;;;0.93;;
23282;SDS011;11810;51.178;3.878;2023-03-31T18:07:15;1.77;;;1.67;;
23282;SDS011;11810;51.178;3.878;2023-03-31T18:09:42;0.38;;;0.38;;